createdAt,value
2018-01-20T00:00:56.217Z,97871.47
2018-01-20T00:03:23.676Z,97870.72
2018-01-20T00:05:51.115Z,97866.97
2018-01-20T00:08:18.903Z,97872.64
2018-01-20T00:10:58.150Z,97870.84
2018-01-20T00:13:25.805Z,97878.49
2018-01-20T00:15:53.253Z,97879.92
2018-01-20T00:18:20.713Z,97877.47
2018-01-20T00:20:48.808Z,97881.50
2018-01-20T00:23:16.265Z,97874.69
2018-01-20T00:28:43.766Z,97862.25
2018-01-20T00:31:11.543Z,97861.45
2018-01-20T00:33:39.067Z,97849.92
2018-01-20T00:36:06.537Z,97856.41
2018-01-20T00:38:34.350Z,97864.58
2018-01-20T00:41:01.813Z,97853.86
2018-01-20T00:43:29.270Z,97859.70
2018-01-20T00:45:57.208Z,97870.66
2018-01-20T00:48:24.665Z,97876.58
2018-01-20T00:50:52.128Z,97869.92
2018-01-20T00:53:19.877Z,97865.69
2018-01-20T00:55:47.334Z,97868.22
2018-01-20T00:58:14.793Z,97868.88
2018-01-20T01:00:43.175Z,97865.80
2018-01-20T01:03:11.344Z,97864.44
2018-01-20T01:05:38.792Z,97871.52
2018-01-20T01:08:06.777Z,97865.19
2018-01-20T01:10:34.225Z,97867.34
2018-01-20T01:13:01.676Z,97869.63
2018-01-20T01:15:29.443Z,97861.48
2018-01-20T01:17:56.895Z,97865.22
2018-01-20T01:20:24.345Z,97868.70
2018-01-20T01:22:52.162Z,97869.97
2018-01-20T01:25:19.617Z,97872.38
2018-01-20T01:27:47.467Z,97876.30
2018-01-20T01:30:15.202Z,97868.88
2018-01-20T01:32:42.658Z,97872.80
2018-01-20T01:35:10.116Z,97860.92
2018-01-20T01:37:37.858Z,97860.50
2018-01-20T01:40:05.321Z,97868.05
2018-01-20T01:42:32.777Z,97862.22
2018-01-20T01:45:00.540Z,97855.30
2018-01-20T01:47:28.005Z,97859.20
2018-01-20T01:49:55.469Z,97862.39
2018-01-20T01:52:23.226Z,97857.34
2018-01-20T01:54:50.685Z,97862.50
2018-01-20T01:57:18.153Z,97861.42
2018-01-20T01:59:46.222Z,97864.45
2018-01-20T02:02:13.680Z,97867.25
2018-01-20T02:04:42.129Z,97862.88
2018-01-20T02:07:09.837Z,97856.61
2018-01-20T02:09:37.292Z,97866.66
2018-01-20T02:12:04.752Z,97865.55
2018-01-20T02:14:32.516Z,97863.62
2018-01-20T02:16:59.972Z,97851.28
2018-01-20T02:19:27.436Z,97855.77
2018-01-20T02:21:55.200Z,97859.14
2018-01-20T02:24:22.666Z,97852.09
2018-01-20T02:26:50.123Z,97851.55
2018-01-20T02:29:17.888Z,97858.08
2018-01-20T02:31:45.338Z,97853.54
2018-01-20T02:34:12.802Z,97855.20
2018-01-20T02:36:40.568Z,97865.89
2018-01-20T02:39:08.029Z,97867.47
2018-01-20T02:41:35.501Z,97863.18
2018-01-20T02:44:03.582Z,97872.14
2018-01-20T02:46:31.034Z,97863.95
2018-01-20T02:48:58.500Z,97866.08
2018-01-20T02:51:26.230Z,97870.52
2018-01-20T02:53:53.694Z,97872.36
2018-01-20T02:56:21.154Z,97874.48
2018-01-20T02:58:49.548Z,97875.06
2018-01-20T03:01:17.000Z,97870.05
2018-01-20T03:03:44.464Z,97874.25
2018-01-20T03:06:14.056Z,97878.41
2018-01-20T03:08:41.504Z,97876.45
2018-01-20T03:11:08.961Z,97871.48
2018-01-20T03:13:37.072Z,97875.77
2018-01-20T03:16:04.534Z,97879.77
2018-01-20T03:18:31.987Z,97883.70
2018-01-20T03:20:59.770Z,97887.39
2018-01-20T03:23:27.225Z,97888.66
2018-01-20T03:25:54.676Z,97896.11
2018-01-20T03:28:22.280Z,97893.41
2018-01-20T03:30:49.733Z,97891.30
2018-01-20T03:33:17.193Z,97897.81
2018-01-20T03:35:45.132Z,97896.20
2018-01-20T03:38:12.580Z,97915.23
2018-01-20T03:40:40.016Z,97920.28
2018-01-20T03:43:07.720Z,97917.75
2018-01-20T03:45:35.173Z,97926.48
2018-01-20T03:48:02.622Z,97923.06
2018-01-20T03:50:30.603Z,97924.78
2018-01-20T03:52:58.057Z,97935.45
2018-01-20T03:55:25.501Z,97930.57
2018-01-20T03:57:53.509Z,97929.84
2018-01-20T04:00:20.944Z,97930.31
2018-01-20T04:02:48.396Z,97926.27
2018-01-20T04:05:16.191Z,97931.84
2018-01-20T04:07:44.021Z,97923.77
2018-01-20T04:10:11.469Z,97930.64
2018-01-20T04:12:39.187Z,97943.00
2018-01-20T04:15:06.646Z,97952.18
2018-01-20T04:17:34.097Z,97952.81
2018-01-20T04:20:01.876Z,97952.68
2018-01-20T04:22:29.338Z,97949.95
2018-01-20T04:24:56.786Z,97954.05
2018-01-20T04:27:24.561Z,97954.17
2018-01-20T04:29:52.009Z,97953.72
2018-01-20T04:32:19.462Z,97958.94
2018-01-20T04:34:47.247Z,97962.17
2018-01-20T04:37:14.691Z,97968.95
2018-01-20T04:39:42.141Z,97966.29
2018-01-20T04:42:09.888Z,97959.66
2018-01-20T04:44:37.342Z,97962.25
2018-01-20T04:47:04.802Z,97952.70
2018-01-20T04:49:32.634Z,97958.48
2018-01-20T04:52:00.078Z,97959.87
2018-01-20T04:54:27.525Z,97955.62
2018-01-20T04:56:55.161Z,97953.18
2018-01-20T04:59:22.614Z,97953.98
2018-01-20T05:01:50.056Z,97953.85
2018-01-20T05:04:18.007Z,97961.27
2018-01-20T05:06:45.453Z,97959.47
2018-01-20T05:09:13.524Z,97965.39
2018-01-20T05:11:41.306Z,97966.42
2018-01-20T05:14:08.777Z,97964.98
2018-01-20T05:16:36.232Z,97966.52
2018-01-20T05:19:03.988Z,97972.19
2018-01-20T05:21:31.449Z,97977.73
2018-01-20T05:23:58.903Z,97978.33
2018-01-20T05:26:26.672Z,97982.47
2018-01-20T05:28:54.132Z,97987.02
2018-01-20T05:31:21.638Z,97985.56
2018-01-20T05:33:49.830Z,97984.97
2018-01-20T05:36:17.285Z,97979.90
2018-01-20T05:38:44.745Z,97987.63
2018-01-20T05:41:12.664Z,97979.11
2018-01-20T05:43:40.124Z,97983.74
2018-01-20T05:46:07.588Z,97975.80
2018-01-20T05:48:35.660Z,97978.81
2018-01-20T05:51:03.185Z,97978.60
2018-01-20T05:53:30.650Z,97973.20
2018-01-20T05:55:58.335Z,97980.19
2018-01-20T05:58:25.792Z,97976.56
2018-01-20T06:00:53.352Z,97978.66
2018-01-20T06:03:21.341Z,97978.86
2018-01-20T06:05:48.806Z,97975.64
2018-01-20T06:08:16.265Z,97973.50
2018-01-20T06:10:44.380Z,97976.70
2018-01-20T06:13:11.837Z,97983.32
2018-01-20T06:15:39.294Z,97974.42
2018-01-20T06:18:07.020Z,97974.34
2018-01-20T06:20:34.544Z,97973.66
2018-01-20T06:23:02.016Z,97970.20
2018-01-20T06:25:29.707Z,97977.27
2018-01-20T06:27:57.179Z,97975.38
2018-01-20T06:30:24.641Z,97975.63
2018-01-20T06:32:52.384Z,97972.87
2018-01-20T06:35:20.020Z,97972.42
2018-01-20T06:37:47.465Z,97968.86
2018-01-20T06:40:15.082Z,97961.62
2018-01-20T06:42:42.546Z,97961.23
2018-01-20T06:45:10.006Z,97963.88
2018-01-20T06:47:37.767Z,97964.89
2018-01-20T06:50:05.317Z,97959.94
2018-01-20T06:52:33.366Z,97955.95
2018-01-20T06:55:01.132Z,97959.75
2018-01-20T06:57:28.583Z,97946.00
2018-01-20T06:59:56.046Z,97956.67
2018-01-20T07:02:23.633Z,97962.20
2018-01-20T07:04:51.108Z,97964.65
2018-01-20T07:07:18.561Z,97963.50
2018-01-20T07:09:46.752Z,97962.30
2018-01-20T07:12:16.735Z,97967.70
2018-01-20T07:14:44.209Z,97970.45
2018-01-20T07:17:11.915Z,97966.72
2018-01-20T07:19:39.366Z,97976.58
2018-01-20T07:22:06.835Z,97965.87
2018-01-20T07:24:34.579Z,97961.66
2018-01-20T07:27:02.037Z,97954.89
2018-01-20T07:29:29.508Z,97956.72
2018-01-20T07:31:57.257Z,97953.23
2018-01-20T07:34:24.715Z,97948.73
2018-01-20T07:36:52.172Z,97944.05
2018-01-20T07:39:20.265Z,97950.56
2018-01-20T07:41:47.716Z,97951.16
2018-01-20T07:44:15.177Z,97944.50
2018-01-20T07:46:43.176Z,97944.48
2018-01-20T07:49:10.638Z,97943.83
2018-01-20T07:51:38.097Z,97938.62
2018-01-20T07:54:05.939Z,97932.91
2018-01-20T07:56:33.396Z,97933.18
2018-01-20T07:59:00.843Z,97933.03
2018-01-20T08:01:28.934Z,97935.87
2018-01-20T08:03:56.393Z,97938.42
2018-01-20T08:06:23.847Z,97936.70
2018-01-20T08:08:51.626Z,97937.85
2018-01-20T08:11:19.133Z,97936.45
2018-01-20T08:13:46.925Z,97930.50
2018-01-20T08:16:14.611Z,97931.41
2018-01-20T08:18:42.073Z,97926.60
2018-01-20T08:21:09.772Z,97929.91
2018-01-20T08:23:37.651Z,97930.13
2018-01-20T08:26:05.101Z,97911.18
2018-01-20T08:28:32.546Z,97915.19
2018-01-20T08:31:00.296Z,97914.14
2018-01-20T08:33:27.757Z,97908.84
2018-01-20T08:35:55.200Z,97896.99
2018-01-20T08:38:22.981Z,97907.73
2018-01-20T08:40:50.429Z,97894.72
2018-01-20T08:43:17.881Z,97901.95
2018-01-20T08:45:45.551Z,97906.56
2018-01-20T08:48:13.008Z,97903.50
2018-01-20T08:50:40.471Z,97897.74
2018-01-20T08:53:08.977Z,97902.44
2018-01-20T08:55:36.429Z,97900.65
2018-01-20T08:58:03.880Z,97897.84
2018-01-20T09:00:31.656Z,97905.79
2018-01-20T09:02:59.118Z,97896.13
2018-01-20T09:05:26.572Z,97900.67
2018-01-20T09:07:54.353Z,97888.78
2018-01-20T09:10:21.812Z,97871.44
2018-01-20T09:12:49.748Z,97862.16
2018-01-20T09:15:18.190Z,97870.17
2018-01-20T09:17:45.666Z,97870.16
2018-01-20T09:20:13.116Z,97864.13
2018-01-20T09:22:40.940Z,97865.27
2018-01-20T09:25:08.385Z,97859.92
2018-01-20T09:27:35.823Z,97859.20
2018-01-20T09:30:03.633Z,97853.70
2018-01-20T09:32:31.086Z,97860.25
2018-01-20T09:34:58.527Z,97854.64
2018-01-20T09:37:26.323Z,97845.67
2018-01-20T09:39:53.832Z,97846.94
2018-01-20T09:42:21.277Z,97843.08
2018-01-20T09:44:49.309Z,97836.16
2018-01-20T09:47:16.745Z,97842.44
2018-01-20T09:49:44.189Z,97845.47
2018-01-20T09:52:12.007Z,97840.97
2018-01-20T09:54:39.465Z,97835.92
2018-01-20T09:57:06.916Z,97831.95
2018-01-20T09:59:34.687Z,97831.54
2018-01-20T10:02:02.141Z,97833.48
2018-01-20T10:04:29.590Z,97837.02
2018-01-20T10:06:57.377Z,97834.70
2018-01-20T10:09:24.853Z,97834.69
2018-01-20T10:11:52.332Z,97837.22
2018-01-20T10:14:20.120Z,97821.03
2018-01-20T10:16:48.207Z,97813.21
2018-01-20T10:19:15.652Z,97812.02
2018-01-20T10:21:43.369Z,97808.58
2018-01-20T10:24:10.812Z,97806.19
2018-01-20T10:26:38.252Z,97803.71
2018-01-20T10:29:06.358Z,97807.19
2018-01-20T10:31:33.805Z,97813.17
2018-01-20T10:34:01.261Z,97815.54
2018-01-20T10:36:29.045Z,97822.77
2018-01-20T10:38:56.500Z,97832.97
2018-01-20T10:41:23.952Z,97843.08
2018-01-20T10:43:51.741Z,97824.91
2018-01-20T10:46:19.192Z,97826.34
2018-01-20T10:48:46.632Z,97830.70
2018-01-20T10:51:14.425Z,97831.02
2018-01-20T10:53:41.866Z,97816.16
2018-01-20T10:56:09.305Z,97819.02
2018-01-20T10:58:37.429Z,97811.71
2018-01-20T11:01:04.881Z,97807.23
2018-01-20T11:03:32.342Z,97809.14
2018-01-20T11:05:59.925Z,97798.79
2018-01-20T11:08:27.368Z,97795.94
2018-01-20T11:10:54.811Z,97782.34
2018-01-20T11:13:22.792Z,97780.48
2018-01-20T11:15:50.249Z,97786.47
2018-01-20T11:18:18.085Z,97789.91
2018-01-20T11:20:46.090Z,97784.75
2018-01-20T11:23:13.533Z,97775.11
2018-01-20T11:25:40.988Z,97773.52
2018-01-20T11:28:08.776Z,97770.20
2018-01-20T11:30:36.220Z,97771.91
2018-01-20T11:33:03.669Z,97759.03
2018-01-20T11:35:31.767Z,97761.13
2018-01-20T11:37:59.211Z,97757.53
2018-01-20T11:40:26.668Z,97743.94
2018-01-20T11:42:54.533Z,97750.30
2018-01-20T11:45:21.997Z,97742.65
2018-01-20T11:47:49.437Z,97736.76
2018-01-20T11:50:17.447Z,97741.86
2018-01-20T11:52:44.898Z,97733.50
2018-01-20T11:55:12.343Z,97734.44
2018-01-20T11:57:40.132Z,97726.46
2018-01-20T12:00:07.606Z,97724.39
2018-01-20T12:02:35.072Z,97725.16
2018-01-20T12:05:02.777Z,97725.04
2018-01-20T12:07:30.315Z,97726.17
2018-01-20T12:09:57.765Z,97713.39
2018-01-20T12:12:26.299Z,97720.02
2018-01-20T12:14:53.761Z,97720.28
2018-01-20T12:17:21.197Z,97716.30
2018-01-20T12:19:50.036Z,97716.64
2018-01-20T12:22:17.495Z,97703.87
2018-01-20T12:24:44.956Z,97699.77
2018-01-20T12:27:12.723Z,97692.35
2018-01-20T12:29:40.187Z,97692.86
2018-01-20T12:32:07.637Z,97684.57
2018-01-20T12:34:35.725Z,97678.28
2018-01-20T12:37:03.172Z,97683.87
2018-01-20T12:39:30.640Z,97679.23
2018-01-20T12:41:58.720Z,97674.94
2018-01-20T12:44:26.170Z,97670.53
2018-01-20T12:46:53.613Z,97660.84
2018-01-20T12:49:21.404Z,97652.65
2018-01-20T12:51:48.849Z,97645.94
2018-01-20T12:54:16.321Z,97645.93
2018-01-20T12:56:44.137Z,97640.80
2018-01-20T12:59:11.603Z,97638.30
2018-01-20T13:01:39.057Z,97635.92
2018-01-20T13:04:06.784Z,97621.07
2018-01-20T13:06:34.228Z,97613.72
2018-01-20T13:09:01.677Z,97612.72
2018-01-20T13:11:29.800Z,97598.75
2018-01-20T13:13:57.245Z,97598.25
2018-01-20T13:16:24.743Z,97594.73
2018-01-20T13:18:52.457Z,97591.55
2018-01-20T13:21:20.596Z,97585.91
2018-01-20T13:23:48.039Z,97586.67
2018-01-20T13:26:15.767Z,97582.42
2018-01-20T13:28:43.213Z,97592.74
2018-01-20T13:31:10.660Z,97580.64
2018-01-20T13:33:38.412Z,97577.61
2018-01-20T13:36:05.866Z,97588.83
2018-01-20T13:38:33.315Z,97577.87
2018-01-20T13:41:01.139Z,97580.25
2018-01-20T13:43:28.585Z,97577.59
2018-01-20T13:45:56.033Z,97579.08
2018-01-20T13:48:23.812Z,97575.03
2018-01-20T13:50:51.260Z,97569.52
2018-01-20T13:53:18.704Z,97571.11
2018-01-20T13:55:46.505Z,97559.05
2018-01-20T13:58:13.945Z,97566.05
2018-01-20T14:00:41.406Z,97561.50
2018-01-20T14:03:09.200Z,97551.69
2018-01-20T14:05:36.661Z,97542.22
2018-01-20T14:08:04.110Z,97538.10
2018-01-20T14:10:31.889Z,97536.19
2018-01-20T14:12:59.336Z,97539.51
2018-01-20T14:15:26.785Z,97532.23
2018-01-20T14:17:54.621Z,97523.19
2018-01-20T14:20:22.080Z,97528.92
2018-01-20T14:22:50.172Z,97527.42
2018-01-20T14:25:17.874Z,97516.41
2018-01-20T14:27:45.325Z,97518.91
2018-01-20T14:30:12.772Z,97512.03
2018-01-20T14:32:40.887Z,97518.66
2018-01-20T14:35:08.334Z,97515.08
2018-01-20T14:37:35.780Z,97506.54
2018-01-20T14:40:03.394Z,97512.83
2018-01-20T14:42:30.844Z,97507.83
2018-01-20T14:44:58.290Z,97501.42
2018-01-20T14:47:26.237Z,97504.38
2018-01-20T14:49:53.681Z,97498.11
2018-01-20T14:52:21.156Z,97499.80
2018-01-20T14:54:48.927Z,97489.12
2018-01-20T14:57:16.380Z,97488.80
2018-01-20T14:59:43.834Z,97486.30
2018-01-20T15:02:11.460Z,97471.63
2018-01-20T15:04:38.937Z,97476.33
2018-01-20T15:07:06.384Z,97471.34
2018-01-20T15:09:34.620Z,97468.87
2018-01-20T15:12:02.086Z,97469.42
2018-01-20T15:14:29.531Z,97455.61
2018-01-20T15:16:57.294Z,97452.98
2018-01-20T15:19:24.768Z,97454.78
2018-01-20T15:21:52.212Z,97453.66
2018-01-20T15:24:20.824Z,97454.06
2018-01-20T15:26:48.268Z,97446.34
2018-01-20T15:29:15.726Z,97441.83
2018-01-20T15:31:43.583Z,97440.25
2018-01-20T15:34:11.022Z,97429.16
2018-01-20T15:36:38.465Z,97427.40
2018-01-20T15:39:06.282Z,97421.09
2018-01-20T15:41:33.727Z,97414.73
2018-01-20T15:44:01.181Z,97419.51
2018-01-20T15:46:28.956Z,97409.45
2018-01-20T15:48:56.400Z,97407.06
2018-01-20T15:51:23.849Z,97396.22
2018-01-20T15:53:51.960Z,97399.95
2018-01-20T15:56:19.400Z,97388.95
2018-01-20T15:58:46.845Z,97379.16
2018-01-20T16:01:14.644Z,97374.64
2018-01-20T16:03:42.086Z,97376.72
2018-01-20T16:06:09.617Z,97367.94
2018-01-20T16:08:37.642Z,97363.34
2018-01-20T16:11:05.089Z,97354.94
2018-01-20T16:13:32.536Z,97348.37
2018-01-20T16:16:00.332Z,97348.20
2018-01-20T16:18:27.782Z,97345.17
2018-01-20T16:20:55.268Z,97338.44
2018-01-20T16:23:23.012Z,97332.07
2018-01-20T16:25:50.865Z,97331.78
2018-01-20T16:28:18.325Z,97327.56
2018-01-20T16:30:46.328Z,97316.12
2018-01-20T16:33:13.773Z,97310.35
2018-01-20T16:35:41.217Z,97305.03
2018-01-20T16:38:09.319Z,97294.44
2018-01-20T16:40:36.756Z,97285.86
2018-01-20T16:43:04.210Z,97285.62
2018-01-20T16:45:32.000Z,97273.66
2018-01-20T16:47:59.447Z,97272.08
2018-01-20T16:50:26.898Z,97275.42
2018-01-20T16:52:54.677Z,97265.83
2018-01-20T16:55:22.130Z,97259.30
2018-01-20T16:57:49.580Z,97247.92
2018-01-20T17:00:17.383Z,97239.88
2018-01-20T17:02:44.836Z,97245.33
2018-01-20T17:05:13.398Z,97233.95
2018-01-20T17:07:41.290Z,97228.45
2018-01-20T17:10:08.780Z,97224.98
2018-01-20T17:12:36.225Z,97224.17
2018-01-20T17:15:04.228Z,97223.04
2018-01-20T17:17:31.692Z,97216.68
2018-01-20T17:19:59.147Z,97209.66
2018-01-20T17:22:26.970Z,97199.02
2018-01-20T17:24:54.417Z,97194.42
2018-01-20T17:27:24.411Z,97181.64
2018-01-20T17:29:52.111Z,97180.75
2018-01-20T17:32:19.564Z,97173.84
2018-01-20T17:34:47.020Z,97152.63
2018-01-20T17:37:14.796Z,97150.13
2018-01-20T17:39:42.257Z,97141.58
2018-01-20T17:42:09.701Z,97129.30
2018-01-20T17:44:37.821Z,97116.49
2018-01-20T17:47:05.264Z,97108.40
2018-01-20T17:49:32.708Z,97104.13
2018-01-20T17:52:00.515Z,97100.49
2018-01-20T17:54:27.969Z,97093.77
2018-01-20T17:56:55.413Z,97087.27
2018-01-20T17:59:23.322Z,97076.39
2018-01-20T18:01:50.763Z,97074.52
2018-01-20T18:04:18.208Z,97069.75
2018-01-20T18:06:46.177Z,97065.16
2018-01-20T18:09:13.673Z,97060.80
2018-01-20T18:11:41.142Z,97053.75
2018-01-20T18:14:08.862Z,97044.97
2018-01-20T18:16:36.322Z,97038.50
2018-01-20T18:19:03.776Z,97034.91
2018-01-20T18:21:31.605Z,97038.24
2018-01-20T18:23:59.053Z,97033.58
2018-01-20T18:26:26.500Z,97025.56
2018-01-20T18:28:54.580Z,97010.05
2018-01-20T18:31:22.039Z,97005.27
2018-01-20T18:33:49.501Z,96997.11
2018-01-20T18:36:17.210Z,96993.94
2018-01-20T18:38:44.665Z,96985.43
2018-01-20T18:41:12.120Z,96971.86
2018-01-20T18:43:39.933Z,96965.16
2018-01-20T18:46:07.392Z,96965.10
2018-01-20T18:48:34.852Z,96960.86
2018-01-20T18:51:02.593Z,96958.98
2018-01-20T18:53:30.057Z,96957.82
2018-01-20T18:55:57.508Z,96936.48
2018-01-20T18:58:25.581Z,96929.34
2018-01-20T19:00:53.036Z,96923.03
2018-01-20T19:03:20.509Z,96915.70
2018-01-20T19:05:48.270Z,96906.01
2018-01-20T19:08:15.725Z,96905.53
2018-01-20T19:10:43.177Z,96895.53
2018-01-20T19:13:11.268Z,96882.66
2018-01-20T19:15:38.736Z,96871.41
2018-01-20T19:18:06.192Z,96847.64
2018-01-20T19:20:33.953Z,96849.23
2018-01-20T19:23:01.409Z,96852.73
2018-01-20T19:25:28.864Z,96859.63
2018-01-20T19:27:56.641Z,96855.19
2018-01-20T19:30:24.490Z,96853.47
2018-01-20T19:32:51.948Z,96843.03
2018-01-20T19:35:19.634Z,96836.61
2018-01-20T19:37:47.098Z,96829.45
2018-01-20T19:40:14.567Z,96821.45
2018-01-20T19:42:42.324Z,96822.14
2018-01-20T19:45:09.793Z,96816.97
2018-01-20T19:47:37.254Z,96814.14
2018-01-20T19:50:05.007Z,96807.63
2018-01-20T19:52:32.456Z,96798.22
2018-01-20T19:54:59.901Z,96788.88
2018-01-20T19:57:27.605Z,96786.53
2018-01-20T19:59:55.679Z,96774.98
2018-01-20T20:02:23.150Z,96767.00
2018-01-20T20:04:51.006Z,96760.98
2018-01-20T20:07:18.465Z,96746.33
2018-01-20T20:09:45.931Z,96737.09
2018-01-20T20:12:13.691Z,96746.45
2018-01-20T20:14:41.156Z,96744.47
2018-01-20T20:17:08.604Z,96739.87
2018-01-20T20:19:36.377Z,96737.25
2018-01-20T20:22:03.831Z,96742.79
2018-01-20T20:24:31.288Z,96741.16
2018-01-20T20:26:59.058Z,96735.97
2018-01-20T20:29:26.517Z,96728.80
2018-01-20T20:31:54.824Z,96721.70
2018-01-20T20:34:23.319Z,96715.67
2018-01-20T20:36:50.769Z,96712.88
2018-01-20T20:39:18.221Z,96702.56
2018-01-20T20:41:46.600Z,96716.29
2018-01-20T20:44:14.707Z,96709.52
2018-01-20T20:46:42.781Z,96711.59
2018-01-20T20:49:10.941Z,96707.80
2018-01-20T20:51:38.812Z,96706.91
2018-01-20T20:54:06.392Z,96692.56
2018-01-20T20:56:34.731Z,96692.42
2018-01-20T20:59:02.178Z,96696.64
2018-01-20T21:01:30.122Z,96685.87
2018-01-20T21:03:58.349Z,96681.00
2018-01-20T21:06:26.016Z,96674.70
2018-01-20T21:08:53.783Z,96667.62
2018-01-20T21:11:21.620Z,96657.88
2018-01-20T21:13:49.665Z,96661.23
2018-01-20T21:16:17.180Z,96661.75
2018-01-20T21:18:45.168Z,96657.38
2018-01-20T21:21:12.685Z,96663.22
2018-01-20T21:23:40.128Z,96664.91
2018-01-20T21:26:07.935Z,96665.08
2018-01-20T21:28:35.396Z,96664.53
2018-01-20T21:31:02.843Z,96664.38
2018-01-20T21:33:30.912Z,96669.77
2018-01-20T21:35:58.364Z,96663.66
2018-01-20T21:38:25.807Z,96657.18
2018-01-20T21:40:53.608Z,96661.28
2018-01-20T21:43:21.413Z,96651.00
2018-01-20T21:45:48.866Z,96654.13
2018-01-20T21:48:16.602Z,96653.98
2018-01-20T21:50:44.050Z,96650.72
2018-01-20T21:53:11.497Z,96654.45
2018-01-20T21:55:39.289Z,96657.70
2018-01-20T21:58:06.799Z,96653.22
2018-01-20T22:00:34.258Z,96651.88
2018-01-20T22:03:01.880Z,96644.45
2018-01-20T22:05:29.320Z,96653.11
2018-01-20T22:08:08.569Z,96640.73
2018-01-20T22:10:36.012Z,96641.41
2018-01-20T22:13:03.465Z,96634.52
2018-01-20T22:15:31.269Z,96643.29
2018-01-20T22:17:58.728Z,96632.87
2018-01-20T22:20:26.188Z,96635.70
2018-01-20T22:22:54.565Z,96653.22
2018-01-20T22:25:22.029Z,96654.39
2018-01-20T22:27:49.495Z,96650.85
2018-01-20T22:30:17.248Z,96649.34
2018-01-20T22:32:44.697Z,96645.33
2018-01-20T22:35:13.993Z,96649.55
2018-01-20T22:37:41.776Z,96653.53
2018-01-20T22:40:09.224Z,96648.08
2018-01-20T22:42:36.669Z,96648.47
2018-01-20T22:45:04.767Z,96645.70
2018-01-20T22:47:32.216Z,96647.60
2018-01-20T22:49:59.674Z,96639.53
2018-01-20T22:52:27.374Z,96639.41
2018-01-20T22:54:54.832Z,96638.31
2018-01-20T22:57:22.281Z,96632.23
2018-01-20T22:59:50.128Z,96623.91
2018-01-20T23:02:17.566Z,96614.95
2018-01-20T23:04:45.079Z,96613.50
2018-01-20T23:07:12.823Z,96612.16
2018-01-20T23:09:40.264Z,96614.12
2018-01-20T23:12:07.722Z,96615.00
2018-01-20T23:14:35.520Z,96622.50
2018-01-20T23:17:02.965Z,96618.84
2018-01-20T23:19:30.417Z,96612.48
2018-01-20T23:21:58.214Z,96614.74
2018-01-20T23:24:25.664Z,96611.59
2018-01-20T23:26:53.131Z,96598.89
2018-01-20T23:29:21.213Z,96598.80
2018-01-20T23:31:48.663Z,96602.92
2018-01-20T23:34:16.117Z,96592.17
2018-01-20T23:36:44.188Z,96588.19
2018-01-20T23:39:11.632Z,96587.11
2018-01-20T23:41:39.082Z,96591.12
2018-01-20T23:44:06.889Z,96588.23
2018-01-20T23:46:34.336Z,96587.05
2018-01-20T23:49:01.781Z,96589.16
2018-01-20T23:51:29.882Z,96588.78
2018-01-20T23:53:57.400Z,96582.52
2018-01-20T23:56:24.849Z,96583.80
2018-01-20T23:58:52.877Z,96593.33
